sensor_id;sensor_type;location;lat;lon;timestamp;pressure;altitude;pressure_sealevel;temperature;humidity
39455;BME280;25155;41.890;23.446;2023-12-20T00:02:23;92318.47;;;-0.99;71.63
39455;BME280;25155;41.890;23.446;2023-12-20T00:04:50;92318.91;;;-0.95;71.64
39455;BME280;25155;41.890;23.446;2023-12-20T00:07:18;92320.06;;;-0.98;71.50
39455;BME280;25155;41.890;23.446;2023-12-20T00:09:45;92319.81;;;-1.03;71.40
39455;BME280;25155;41.890;23.446;2023-12-20T00:12:14;92319.75;;;-1.09;71.50
39455;BME280;25155;41.890;23.446;2023-12-20T00:14:41;92321.53;;;-1.10;72.09
39455;BME280;25155;41.890;23.446;2023-12-20T00:17:09;92313.97;;;-1.18;71.86
39455;BME280;25155;41.890;23.446;2023-12-20T00:19:36;92306.72;;;-1.15;71.91
39455;BME280;25155;41.890;23.446;2023-12-20T00:22:04;92301.22;;;-1.12;72.42
39455;BME280;25155;41.890;23.446;2023-12-20T00:24:31;92299.91;;;-1.07;72.42
39455;BME280;25155;41.890;23.446;2023-12-20T00:26:58;92290.50;;;-1.00;71.80
39455;BME280;25155;41.890;23.446;2023-12-20T00:29:27;92296.66;;;-0.95;71.73
39455;BME280;25155;41.890;23.446;2023-12-20T00:31:54;92291.56;;;-0.88;71.67
39455;BME280;25155;41.890;23.446;2023-12-20T00:34:21;92286.91;;;-0.84;71.70
39455;BME280;25155;41.890;23.446;2023-12-20T00:36:48;92291.63;;;-0.81;71.61
39455;BME280;25155;41.890;23.446;2023-12-20T00:39:15;92291.25;;;-0.78;71.57
39455;BME280;25155;41.890;23.446;2023-12-20T00:41:43;92289.34;;;-0.76;71.79
39455;BME280;25155;41.890;23.446;2023-12-20T00:44:10;92285.59;;;-0.73;71.85
39455;BME280;25155;41.890;23.446;2023-12-20T00:46:38;92279.50;;;-0.72;71.68
39455;BME280;25155;41.890;23.446;2023-12-20T00:49:05;92277.72;;;-0.72;71.57
39455;BME280;25155;41.890;23.446;2023-12-20T00:51:33;92278.69;;;-0.73;71.21
39455;BME280;25155;41.890;23.446;2023-12-20T00:54:00;92277.91;;;-0.73;71.29
39455;BME280;25155;41.890;23.446;2023-12-20T00:56:28;92286.38;;;-0.73;71.44
39455;BME280;25155;41.890;23.446;2023-12-20T00:58:55;92288.16;;;-0.73;71.19
39455;BME280;25155;41.890;23.446;2023-12-20T01:01:22;92283.22;;;-0.75;70.65
39455;BME280;25155;41.890;23.446;2023-12-20T01:03:51;92275.91;;;-0.78;70.80
39455;BME280;25155;41.890;23.446;2023-12-20T01:06:18;92272.72;;;-0.80;70.81
39455;BME280;25155;41.890;23.446;2023-12-20T01:08:45;92269.78;;;-1.05;70.77
39455;BME280;25155;41.890;23.446;2023-12-20T01:11:12;92274.94;;;-1.42;71.39
39455;BME280;25155;41.890;23.446;2023-12-20T01:13:39;92263.59;;;-1.54;71.87
39455;BME280;25155;41.890;23.446;2023-12-20T01:16:08;92258.72;;;-1.49;72.14
39455;BME280;25155;41.890;23.446;2023-12-20T01:18:36;92258.94;;;-1.51;73.08
39455;BME280;25155;41.890;23.446;2023-12-20T01:21:05;92261.53;;;-1.65;73.88
39455;BME280;25155;41.890;23.446;2023-12-20T01:23:33;92253.59;;;-1.71;73.78
39455;BME280;25155;41.890;23.446;2023-12-20T01:26:00;92245.41;;;-1.81;74.59
39455;BME280;25155;41.890;23.446;2023-12-20T01:28:28;92239.09;;;-1.85;74.97
39455;BME280;25155;41.890;23.446;2023-12-20T01:30:55;92239.50;;;-1.81;75.08
39455;BME280;25155;41.890;23.446;2023-12-20T01:33:22;92239.09;;;-1.85;75.21
39455;BME280;25155;41.890;23.446;2023-12-20T01:35:49;92238.84;;;-1.90;74.89
39455;BME280;25155;41.890;23.446;2023-12-20T01:38:18;92229.66;;;-1.84;74.87
39455;BME280;25155;41.890;23.446;2023-12-20T01:40:45;92217.88;;;-1.79;75.25
39455;BME280;25155;41.890;23.446;2023-12-20T01:43:13;92227.03;;;-1.70;75.47
39455;BME280;25155;41.890;23.446;2023-12-20T01:45:40;92226.31;;;-1.63;75.09
39455;BME280;25155;41.890;23.446;2023-12-20T01:48:08;92219.25;;;-1.61;75.27
39455;BME280;25155;41.890;23.446;2023-12-20T01:50:36;92218.06;;;-1.65;75.48
39455;BME280;25155;41.890;23.446;2023-12-20T01:53:05;92214.16;;;-1.61;75.25
39455;BME280;25155;41.890;23.446;2023-12-20T01:55:39;92207.88;;;-1.59;75.65
39455;BME280;25155;41.890;23.446;2023-12-20T01:58:08;92201.00;;;-1.58;75.10
39455;BME280;25155;41.890;23.446;2023-12-20T02:00:36;92210.38;;;-1.65;74.81
39455;BME280;25155;41.890;23.446;2023-12-20T02:03:04;92195.22;;;-1.67;74.73
39455;BME280;25155;41.890;23.446;2023-12-20T02:05:33;92193.03;;;-1.70;74.63
39455;BME280;25155;41.890;23.446;2023-12-20T02:08:01;92191.66;;;-1.66;74.90
39455;BME280;25155;41.890;23.446;2023-12-20T02:10:28;92189.50;;;-1.84;74.05
39455;BME280;25155;41.890;23.446;2023-12-20T02:12:57;92192.41;;;-2.09;73.26
39455;BME280;25155;41.890;23.446;2023-12-20T02:15:24;92190.03;;;-2.25;73.77
39455;BME280;25155;41.890;23.446;2023-12-20T02:17:52;92161.00;;;-2.39;74.50
39455;BME280;25155;41.890;23.446;2023-12-20T02:20:19;92182.09;;;-2.15;74.15
39455;BME280;25155;41.890;23.446;2023-12-20T02:22:48;92182.19;;;-2.09;74.58
39455;BME280;25155;41.890;23.446;2023-12-20T02:25:15;92181.09;;;-1.99;74.76
39455;BME280;25155;41.890;23.446;2023-12-20T02:27:42;92176.00;;;-1.99;74.50
39455;BME280;25155;41.890;23.446;2023-12-20T02:30:10;92182.66;;;-2.20;74.02
39455;BME280;25155;41.890;23.446;2023-12-20T02:32:38;92182.38;;;-2.25;74.14
39455;BME280;25155;41.890;23.446;2023-12-20T02:35:06;92168.41;;;-2.29;74.50
39455;BME280;25155;41.890;23.446;2023-12-20T02:37:33;92170.94;;;-2.29;74.63
39455;BME280;25155;41.890;23.446;2023-12-20T02:40:02;92175.44;;;-2.31;74.24
39455;BME280;25155;41.890;23.446;2023-12-20T02:42:30;92175.19;;;-2.36;74.75
39455;BME280;25155;41.890;23.446;2023-12-20T02:44:58;92169.38;;;-2.45;74.50
39455;BME280;25155;41.890;23.446;2023-12-20T02:47:25;92167.38;;;-2.50;74.80
39455;BME280;25155;41.890;23.446;2023-12-20T02:49:53;92162.88;;;-2.48;74.62
39455;BME280;25155;41.890;23.446;2023-12-20T02:52:20;92164.72;;;-2.42;74.72
39455;BME280;25155;41.890;23.446;2023-12-20T02:54:47;92147.63;;;-2.41;74.72
39455;BME280;25155;41.890;23.446;2023-12-20T02:57:16;92157.75;;;-2.33;74.92
39455;BME280;25155;41.890;23.446;2023-12-20T02:59:43;92150.94;;;-2.26;74.99
39455;BME280;25155;41.890;23.446;2023-12-20T03:02:10;92152.00;;;-2.20;74.65
39455;BME280;25155;41.890;23.446;2023-12-20T03:04:38;92147.50;;;-2.18;74.65
39455;BME280;25155;41.890;23.446;2023-12-20T03:07:05;92158.31;;;-2.16;74.31
39455;BME280;25155;41.890;23.446;2023-12-20T03:09:32;92149.78;;;-2.23;74.22
39455;BME280;25155;41.890;23.446;2023-12-20T03:11:59;92149.78;;;-2.23;73.82
39455;BME280;25155;41.890;23.446;2023-12-20T03:14:28;92144.53;;;-2.36;73.63
39455;BME280;25155;41.890;23.446;2023-12-20T03:16:55;92145.06;;;-2.41;73.72
39455;BME280;25155;41.890;23.446;2023-12-20T03:19:22;92142.78;;;-2.51;73.74
39455;BME280;25155;41.890;23.446;2023-12-20T03:21:50;92126.16;;;-2.62;74.29
39455;BME280;25155;41.890;23.446;2023-12-20T03:24:19;92143.75;;;-2.52;74.21
39455;BME280;25155;41.890;23.446;2023-12-20T03:26:46;92136.34;;;-2.47;74.13
39455;BME280;25155;41.890;23.446;2023-12-20T03:29:13;92137.94;;;-2.46;74.79
39455;BME280;25155;41.890;23.446;2023-12-20T03:31:42;92136.56;;;-2.48;74.05
39455;BME280;25155;41.890;23.446;2023-12-20T03:34:09;92135.38;;;-2.46;74.68
39455;BME280;25155;41.890;23.446;2023-12-20T03:36:36;92128.75;;;-2.40;74.30
39455;BME280;25155;41.890;23.446;2023-12-20T03:39:04;92132.38;;;-2.34;74.43
39455;BME280;25155;41.890;23.446;2023-12-20T03:41:32;92136.41;;;-2.40;74.18
39455;BME280;25155;41.890;23.446;2023-12-20T03:44:00;92128.75;;;-2.40;74.48
39455;BME280;25155;41.890;23.446;2023-12-20T03:46:27;92133.09;;;-2.41;74.91
39455;BME280;25155;41.890;23.446;2023-12-20T03:48:55;92131.88;;;-2.45;74.63
39455;BME280;25155;41.890;23.446;2023-12-20T03:51:23;92138.72;;;-2.45;75.11
39455;BME280;25155;41.890;23.446;2023-12-20T03:53:50;92136.97;;;-2.45;75.12
39455;BME280;25155;41.890;23.446;2023-12-20T03:56:17;92127.53;;;-2.44;74.97
39455;BME280;25155;41.890;23.446;2023-12-20T03:58:44;92123.16;;;-2.50;75.48
39455;BME280;25155;41.890;23.446;2023-12-20T04:01:11;92128.31;;;-2.44;75.09
39455;BME280;25155;41.890;23.446;2023-12-20T04:03:39;92121.66;;;-2.45;75.31
39455;BME280;25155;41.890;23.446;2023-12-20T04:06:08;92136.00;;;-2.44;75.43
39455;BME280;25155;41.890;23.446;2023-12-20T04:08:35;92129.94;;;-2.43;75.35
39455;BME280;25155;41.890;23.446;2023-12-20T04:11:02;92125.78;;;-2.44;75.21
39455;BME280;25155;41.890;23.446;2023-12-20T04:13:30;92125.78;;;-2.44;75.21
39455;BME280;25155;41.890;23.446;2023-12-20T04:15:57;92124.47;;;-2.39;75.64
39455;BME280;25155;41.890;23.446;2023-12-20T04:18:24;92113.31;;;-2.32;75.57
39455;BME280;25155;41.890;23.446;2023-12-20T04:20:51;92100.00;;;-2.27;75.26
39455;BME280;25155;41.890;23.446;2023-12-20T04:23:19;92104.75;;;-2.24;75.03
39455;BME280;25155;41.890;23.446;2023-12-20T04:25:47;92108.28;;;-2.25;75.60
39455;BME280;25155;41.890;23.446;2023-12-20T04:28:14;92111.66;;;-2.25;75.01
39455;BME280;25155;41.890;23.446;2023-12-20T04:30:42;92099.47;;;-2.23;74.87
39455;BME280;25155;41.890;23.446;2023-12-20T04:33:09;92103.06;;;-2.17;74.70
39455;BME280;25155;41.890;23.446;2023-12-20T04:35:36;92101.75;;;-2.13;74.70
39455;BME280;25155;41.890;23.446;2023-12-20T04:38:04;92092.72;;;-2.09;74.61
39455;BME280;25155;41.890;23.446;2023-12-20T04:40:32;92103.69;;;-2.15;74.50
39455;BME280;25155;41.890;23.446;2023-12-20T04:43:00;92100.63;;;-2.25;73.72
39455;BME280;25155;41.890;23.446;2023-12-20T04:45:27;92092.16;;;-2.26;73.78
39455;BME280;25155;41.890;23.446;2023-12-20T04:47:55;92094.38;;;-2.23;74.10
39455;BME280;25155;41.890;23.446;2023-12-20T04:50:22;92091.28;;;-2.18;74.35
39455;BME280;25155;41.890;23.446;2023-12-20T04:52:49;92089.31;;;-2.16;73.90
39455;BME280;25155;41.890;23.446;2023-12-20T04:55:17;92088.72;;;-2.18;73.94
39455;BME280;25155;41.890;23.446;2023-12-20T04:57:45;92088.13;;;-2.20;74.17
39455;BME280;25155;41.890;23.446;2023-12-20T05:00:13;92081.78;;;-2.24;73.55
39455;BME280;25155;41.890;23.446;2023-12-20T05:02:41;92072.50;;;-2.25;74.07
39455;BME280;25155;41.890;23.446;2023-12-20T05:05:08;92077.44;;;-2.24;73.64
39455;BME280;25155;41.890;23.446;2023-12-20T05:07:35;92081.53;;;-2.29;73.66
39455;BME280;25155;41.890;23.446;2023-12-20T05:10:03;92078.47;;;-2.39;73.99
39455;BME280;25155;41.890;23.446;2023-12-20T05:12:31;92072.50;;;-2.47;73.76
39455;BME280;25155;41.890;23.446;2023-12-20T05:14:59;92075.97;;;-2.54;74.27
39455;BME280;25155;41.890;23.446;2023-12-20T05:17:26;92069.78;;;-2.60;73.78
39455;BME280;25155;41.890;23.446;2023-12-20T05:19:54;92073.50;;;-2.63;73.86
39455;BME280;25155;41.890;23.446;2023-12-20T05:22:21;92070.44;;;-2.58;74.40
39455;BME280;25155;41.890;23.446;2023-12-20T05:24:48;92060.28;;;-2.51;74.31
39455;BME280;25155;41.890;23.446;2023-12-20T05:27:16;92059.53;;;-2.45;73.97
39455;BME280;25155;41.890;23.446;2023-12-20T05:29:43;92059.59;;;-2.38;73.86
39455;BME280;25155;41.890;23.446;2023-12-20T05:32:12;92057.22;;;-2.40;74.00
39455;BME280;25155;41.890;23.446;2023-12-20T05:34:39;92052.75;;;-2.38;73.87
39455;BME280;25155;41.890;23.446;2023-12-20T05:37:06;92058.03;;;-2.39;73.80
39455;BME280;25155;41.890;23.446;2023-12-20T05:39:33;92060.00;;;-2.42;73.55
39455;BME280;25155;41.890;23.446;2023-12-20T05:42:01;92053.09;;;-2.41;73.74
39455;BME280;25155;41.890;23.446;2023-12-20T05:44:28;92040.94;;;-2.39;73.24
39455;BME280;25155;41.890;23.446;2023-12-20T05:46:55;92044.72;;;-2.35;73.32
39455;BME280;25155;41.890;23.446;2023-12-20T05:49:24;92049.38;;;-2.38;73.44
39455;BME280;25155;41.890;23.446;2023-12-20T05:51:51;92054.50;;;-2.38;73.38
39455;BME280;25155;41.890;23.446;2023-12-20T05:54:19;92043.91;;;-2.35;73.02
39455;BME280;25155;41.890;23.446;2023-12-20T05:56:47;92044.56;;;-2.33;73.38
39455;BME280;25155;41.890;23.446;2023-12-20T05:59:14;92042.00;;;-2.33;73.35
39455;BME280;25155;41.890;23.446;2023-12-20T06:01:42;92043.50;;;-2.39;72.73
39455;BME280;25155;41.890;23.446;2023-12-20T06:04:09;92043.53;;;-2.54;72.08
39455;BME280;25155;41.890;23.446;2023-12-20T06:06:41;92046.81;;;-2.60;72.04
39455;BME280;25155;41.890;23.446;2023-12-20T06:09:09;92055.09;;;-2.58;72.32
39455;BME280;25155;41.890;23.446;2023-12-20T06:11:36;92044.44;;;-2.62;72.65
39455;BME280;25155;41.890;23.446;2023-12-20T06:14:03;92038.78;;;-2.57;72.79
39455;BME280;25155;41.890;23.446;2023-12-20T06:16:31;92037.28;;;-2.51;72.74
39455;BME280;25155;41.890;23.446;2023-12-20T06:18:58;92045.03;;;-2.45;72.91
39455;BME280;25155;41.890;23.446;2023-12-20T06:21:26;92040.34;;;-2.41;73.01
39455;BME280;25155;41.890;23.446;2023-12-20T06:23:54;92054.53;;;-2.53;71.96
39455;BME280;25155;41.890;23.446;2023-12-20T06:26:22;92052.13;;;-2.76;70.72
39455;BME280;25155;41.890;23.446;2023-12-20T06:28:49;92051.28;;;-2.84;71.70
39455;BME280;25155;41.890;23.446;2023-12-20T06:31:16;92050.84;;;-2.87;71.74
39455;BME280;25155;41.890;23.446;2023-12-20T06:33:43;92044.31;;;-2.90;72.04
39455;BME280;25155;41.890;23.446;2023-12-20T06:36:11;92046.16;;;-2.84;71.78
39455;BME280;25155;41.890;23.446;2023-12-20T06:38:39;92031.63;;;-2.83;72.43
39455;BME280;25155;41.890;23.446;2023-12-20T06:41:13;92043.88;;;-2.79;72.38
39455;BME280;25155;41.890;23.446;2023-12-20T06:43:40;92036.47;;;-2.73;72.45
39455;BME280;25155;41.890;23.446;2023-12-20T06:46:08;92040.53;;;-2.79;72.14
39455;BME280;25155;41.890;23.446;2023-12-20T06:48:35;92038.50;;;-2.84;72.08
39455;BME280;25155;41.890;23.446;2023-12-20T06:51:04;92035.59;;;-2.81;72.64
39455;BME280;25155;41.890;23.446;2023-12-20T06:53:31;92028.25;;;-2.69;72.92
39455;BME280;25155;41.890;23.446;2023-12-20T06:55:58;92032.22;;;-2.66;72.63
39455;BME280;25155;41.890;23.446;2023-12-20T06:58:27;92031.00;;;-2.70;72.78
39455;BME280;25155;41.890;23.446;2023-12-20T07:00:54;92030.03;;;-2.69;73.23
39455;BME280;25155;41.890;23.446;2023-12-20T07:03:22;92028.44;;;-2.70;73.11
39455;BME280;25155;41.890;23.446;2023-12-20T07:05:49;92024.94;;;-2.69;73.20
39455;BME280;25155;41.890;23.446;2023-12-20T07:08:16;92018.06;;;-2.69;73.53
39455;BME280;25155;41.890;23.446;2023-12-20T07:10:45;92025.41;;;-2.59;74.13
39455;BME280;25155;41.890;23.446;2023-12-20T07:13:13;92013.44;;;-2.58;74.32
39455;BME280;25155;41.890;23.446;2023-12-20T07:15:41;92017.81;;;-2.52;74.26
39455;BME280;25155;41.890;23.446;2023-12-20T07:18:08;92012.41;;;-2.43;74.21
39455;BME280;25155;41.890;23.446;2023-12-20T07:20:36;92015.28;;;-2.31;74.16
39455;BME280;25155;41.890;23.446;2023-12-20T07:23:03;92010.22;;;-2.24;74.13
39455;BME280;25155;41.890;23.446;2023-12-20T07:25:31;92008.50;;;-2.17;74.16
39455;BME280;25155;41.890;23.446;2023-12-20T07:27:59;92007.59;;;-2.09;74.50
39455;BME280;25155;41.890;23.446;2023-12-20T07:30:26;92004.91;;;-2.01;73.95
39455;BME280;25155;41.890;23.446;2023-12-20T07:32:55;92003.00;;;-1.92;74.39
39455;BME280;25155;41.890;23.446;2023-12-20T07:35:23;91997.75;;;-1.84;74.18
39455;BME280;25155;41.890;23.446;2023-12-20T07:37:51;92000.81;;;-1.74;73.96
39455;BME280;25155;41.890;23.446;2023-12-20T07:40:18;91996.91;;;-1.63;74.55
39455;BME280;25155;41.890;23.446;2023-12-20T07:42:45;91988.31;;;-1.55;73.99
39455;BME280;25155;41.890;23.446;2023-12-20T07:45:12;91993.09;;;-1.45;73.96
39455;BME280;25155;41.890;23.446;2023-12-20T07:47:39;91995.53;;;-1.31;74.38
39455;BME280;25155;41.890;23.446;2023-12-20T07:50:08;91993.41;;;-1.20;74.15
39455;BME280;25155;41.890;23.446;2023-12-20T07:52:35;91971.66;;;-0.96;74.37
39455;BME280;25155;41.890;23.446;2023-12-20T07:55:02;91967.03;;;-0.66;74.89
39455;BME280;25155;41.890;23.446;2023-12-20T07:57:30;91961.75;;;-0.38;74.91
39455;BME280;25155;41.890;23.446;2023-12-20T07:59:57;91961.56;;;-0.09;74.41
39455;BME280;25155;41.890;23.446;2023-12-20T08:02:24;91956.03;;;0.21;74.56
39455;BME280;25155;41.890;23.446;2023-12-20T08:04:51;91959.34;;;0.48;74.42
39455;BME280;25155;41.890;23.446;2023-12-20T08:07:19;91961.84;;;0.68;73.70
39455;BME280;25155;41.890;23.446;2023-12-20T08:09:47;91963.00;;;0.85;73.24
39455;BME280;25155;41.890;23.446;2023-12-20T08:12:14;91959.38;;;1.06;72.83
39455;BME280;25155;41.890;23.446;2023-12-20T08:14:42;91948.59;;;1.29;73.33
39455;BME280;25155;41.890;23.446;2023-12-20T08:17:09;91954.41;;;1.50;72.77
39455;BME280;25155;41.890;23.446;2023-12-20T08:19:38;91943.63;;;1.66;72.23
39455;BME280;25155;41.890;23.446;2023-12-20T08:22:05;91948.25;;;1.83;72.32
39455;BME280;25155;41.890;23.446;2023-12-20T08:24:33;91939.47;;;1.97;72.32
39455;BME280;25155;41.890;23.446;2023-12-20T08:27:00;91948.22;;;2.15;71.25
39455;BME280;25155;41.890;23.446;2023-12-20T08:29:28;91940.56;;;2.27;70.82
39455;BME280;25155;41.890;23.446;2023-12-20T08:31:55;91942.59;;;2.43;70.85
39455;BME280;25155;41.890;23.446;2023-12-20T08:34:23;91935.13;;;2.60;71.19
39455;BME280;25155;41.890;23.446;2023-12-20T08:36:50;91933.13;;;2.81;71.19
39455;BME280;25155;41.890;23.446;2023-12-20T08:39:18;91924.41;;;3.00;70.68
39455;BME280;25155;41.890;23.446;2023-12-20T08:41:46;91921.09;;;3.11;70.07
39455;BME280;25155;41.890;23.446;2023-12-20T08:44:14;91906.78;;;3.27;69.94
39455;BME280;25155;41.890;23.446;2023-12-20T08:46:41;91910.22;;;3.40;69.51
39455;BME280;25155;41.890;23.446;2023-12-20T08:49:08;91900.50;;;3.54;69.72
39455;BME280;25155;41.890;23.446;2023-12-20T08:51:35;91889.75;;;3.68;69.33
39455;BME280;25155;41.890;23.446;2023-12-20T08:54:05;91897.06;;;3.83;69.27
39455;BME280;25155;41.890;23.446;2023-12-20T08:56:33;91888.13;;;3.98;69.16
39455;BME280;25155;41.890;23.446;2023-12-20T08:59:02;91889.13;;;4.09;68.19
39455;BME280;25155;41.890;23.446;2023-12-20T09:01:29;91879.72;;;4.14;66.00
39455;BME280;25155;41.890;23.446;2023-12-20T09:03:56;91882.75;;;4.23;65.34
39455;BME280;25155;41.890;23.446;2023-12-20T09:06:23;91873.31;;;4.29;64.62
39455;BME280;25155;41.890;23.446;2023-12-20T09:08:51;91870.63;;;4.35;64.31
39455;BME280;25155;41.890;23.446;2023-12-20T09:11:18;91865.56;;;4.40;63.21
39455;BME280;25155;41.890;23.446;2023-12-20T09:13:46;91859.25;;;4.48;64.15
39455;BME280;25155;41.890;23.446;2023-12-20T09:16:15;91860.81;;;4.61;64.33
39455;BME280;25155;41.890;23.446;2023-12-20T09:18:43;91850.78;;;4.76;64.77
39455;BME280;25155;41.890;23.446;2023-12-20T09:21:10;91843.56;;;4.90;64.40
39455;BME280;25155;41.890;23.446;2023-12-20T09:23:38;91838.13;;;5.04;64.55
39455;BME280;25155;41.890;23.446;2023-12-20T09:26:05;91838.84;;;5.16;63.44
39455;BME280;25155;41.890;23.446;2023-12-20T09:28:32;91825.00;;;5.22;63.01
39455;BME280;25155;41.890;23.446;2023-12-20T09:31:04;91822.81;;;5.31;63.09
39455;BME280;25155;41.890;23.446;2023-12-20T09:33:32;91820.97;;;5.43;62.40
39455;BME280;25155;41.890;23.446;2023-12-20T09:35:59;91821.91;;;5.54;62.40
39455;BME280;25155;41.890;23.446;2023-12-20T09:38:27;91821.97;;;5.59;61.07
39455;BME280;25155;41.890;23.446;2023-12-20T09:40:54;91816.19;;;5.69;61.94
39455;BME280;25155;41.890;23.446;2023-12-20T09:43:24;91809.28;;;5.75;61.66
39455;BME280;25155;41.890;23.446;2023-12-20T09:45:54;91803.78;;;5.88;61.92
39455;BME280;25155;41.890;23.446;2023-12-20T09:48:26;91805.19;;;5.96;60.77
39455;BME280;25155;41.890;23.446;2023-12-20T09:50:56;91797.84;;;6.04;60.76
39455;BME280;25155;41.890;23.446;2023-12-20T09:53:25;91785.34;;;6.18;60.85
39455;BME280;25155;41.890;23.446;2023-12-20T09:55:58;91779.97;;;6.25;60.41
39455;BME280;25155;41.890;23.446;2023-12-20T09:58:26;91774.88;;;6.30;59.96
39455;BME280;25155;41.890;23.446;2023-12-20T10:00:54;91767.38;;;6.34;59.81
39455;BME280;25155;41.890;23.446;2023-12-20T10:03:24;91764.09;;;6.38;59.44
39455;BME280;25155;41.890;23.446;2023-12-20T10:05:52;91752.53;;;6.46;59.90
39455;BME280;25155;41.890;23.446;2023-12-20T10:08:24;91741.25;;;6.57;60.08
39455;BME280;25155;41.890;23.446;2023-12-20T10:10:51;91741.66;;;6.71;60.32
39455;BME280;25155;41.890;23.446;2023-12-20T10:13:18;91729.84;;;6.80;59.96
39455;BME280;25155;41.890;23.446;2023-12-20T10:15:45;91729.94;;;6.91;60.29
39455;BME280;25155;41.890;23.446;2023-12-20T10:18:12;91725.75;;;6.90;58.92
39455;BME280;25155;41.890;23.446;2023-12-20T10:20:41;91712.81;;;6.90;59.14
39455;BME280;25155;41.890;23.446;2023-12-20T10:23:08;91708.75;;;6.99;59.85
39455;BME280;25155;41.890;23.446;2023-12-20T10:25:37;91704.13;;;7.06;59.32
39455;BME280;25155;41.890;23.446;2023-12-20T10:28:11;91701.88;;;7.15;59.26
39455;BME280;25155;41.890;23.446;2023-12-20T10:30:40;91703.34;;;7.06;57.06
39455;BME280;25155;41.890;23.446;2023-12-20T10:33:08;91698.88;;;6.96;58.10
39455;BME280;25155;41.890;23.446;2023-12-20T10:35:36;91684.19;;;7.07;59.06
39455;BME280;25155;41.890;23.446;2023-12-20T10:38:05;91677.00;;;7.19;59.00
39455;BME280;25155;41.890;23.446;2023-12-20T10:40:35;91673.19;;;7.27;58.62
39455;BME280;25155;41.890;23.446;2023-12-20T10:43:05;91666.41;;;7.26;57.11
39455;BME280;25155;41.890;23.446;2023-12-20T10:45:32;91671.13;;;7.29;57.92
39455;BME280;25155;41.890;23.446;2023-12-20T10:47:59;91648.84;;;7.38;58.53
39455;BME280;25155;41.890;23.446;2023-12-20T10:50:28;91640.34;;;7.48;58.45
39455;BME280;25155;41.890;23.446;2023-12-20T10:52:57;91644.06;;;7.57;58.41
39455;BME280;25155;41.890;23.446;2023-12-20T10:55:25;91633.97;;;7.66;59.05
39455;BME280;25155;41.890;23.446;2023-12-20T10:57:54;91637.66;;;7.75;58.50
39455;BME280;25155;41.890;23.446;2023-12-20T11:00:29;91641.00;;;7.70;57.62
39455;BME280;25155;41.890;23.446;2023-12-20T11:03:00;91625.94;;;7.67;58.04
39455;BME280;25155;41.890;23.446;2023-12-20T11:05:38;91624.66;;;7.70;58.07
39455;BME280;25155;41.890;23.446;2023-12-20T11:08:12;91605.72;;;7.74;58.39
39455;BME280;25155;41.890;23.446;2023-12-20T11:10:48;91613.31;;;7.86;58.84
39455;BME280;25155;41.890;23.446;2023-12-20T11:13:21;91600.34;;;7.91;58.73
39455;BME280;25155;41.890;23.446;2023-12-20T11:15:50;91598.53;;;7.97;58.77
39455;BME280;25155;41.890;23.446;2023-12-20T11:18:18;91593.13;;;8.04;58.23
39455;BME280;25155;41.890;23.446;2023-12-20T11:20:45;91597.28;;;8.10;58.82
39455;BME280;25155;41.890;23.446;2023-12-20T11:23:13;91594.69;;;8.10;57.54
39455;BME280;25155;41.890;23.446;2023-12-20T11:25:47;91592.34;;;8.08;57.42
39455;BME280;25155;41.890;23.446;2023-12-20T11:28:15;91585.34;;;8.09;57.56
39455;BME280;25155;41.890;23.446;2023-12-20T11:30:47;91580.94;;;8.15;57.99
39455;BME280;25155;41.890;23.446;2023-12-20T11:33:16;91578.63;;;8.18;57.81
39455;BME280;25155;41.890;23.446;2023-12-20T11:35:45;91570.31;;;8.26;57.87
39455;BME280;25155;41.890;23.446;2023-12-20T11:38:14;91564.38;;;8.41;58.42
39455;BME280;25155;41.890;23.446;2023-12-20T11:40:41;91557.91;;;8.59;58.57
39455;BME280;25155;41.890;23.446;2023-12-20T11:43:09;91551.69;;;8.71;58.30
39455;BME280;25155;41.890;23.446;2023-12-20T11:45:36;91552.72;;;8.80;57.99
39455;BME280;25155;41.890;23.446;2023-12-20T11:48:04;91543.88;;;8.81;57.66
39455;BME280;25155;41.890;23.446;2023-12-20T11:50:34;91534.00;;;8.88;58.23
39455;BME280;25155;41.890;23.446;2023-12-20T11:53:02;91537.91;;;8.96;57.83
39455;BME280;25155;41.890;23.446;2023-12-20T11:55:29;91532.94;;;8.94;58.00
39455;BME280;25155;41.890;23.446;2023-12-20T11:57:56;91520.47;;;8.96;58.24
39455;BME280;25155;41.890;23.446;2023-12-20T12:00:24;91510.03;;;9.01;57.93
39455;BME280;25155;41.890;23.446;2023-12-20T12:02:56;91512.63;;;9.07;57.83
39455;BME280;25155;41.890;23.446;2023-12-20T12:05:23;91507.69;;;9.15;58.12
39455;BME280;25155;41.890;23.446;2023-12-20T12:07:52;91512.34;;;9.13;56.66
39455;BME280;25155;41.890;23.446;2023-12-20T12:10:19;91518.88;;;9.16;56.86
39455;BME280;25155;41.890;23.446;2023-12-20T12:12:46;91515.22;;;9.17;56.43
39455;BME280;25155;41.890;23.446;2023-12-20T12:15:14;91497.28;;;9.05;56.11
39455;BME280;25155;41.890;23.446;2023-12-20T12:17:42;91506.88;;;9.15;56.92
39455;BME280;25155;41.890;23.446;2023-12-20T12:20:09;91503.75;;;9.23;57.09
39455;BME280;25155;41.890;23.446;2023-12-20T12:22:37;91507.41;;;9.27;56.48
39455;BME280;25155;41.890;23.446;2023-12-20T12:25:13;91501.41;;;9.21;55.85
39455;BME280;25155;41.890;23.446;2023-12-20T12:27:40;91500.63;;;9.21;56.63
39455;BME280;25155;41.890;23.446;2023-12-20T12:30:09;91503.22;;;9.26;56.55
39455;BME280;25155;41.890;23.446;2023-12-20T12:32:38;91499.06;;;9.25;56.33
39455;BME280;25155;41.890;23.446;2023-12-20T12:35:08;91493.88;;;9.20;55.35
39455;BME280;25155;41.890;23.446;2023-12-20T12:37:38;91489.75;;;9.14;56.21
39455;BME280;25155;41.890;23.446;2023-12-20T12:40:06;91484.53;;;9.14;56.30
39455;BME280;25155;41.890;23.446;2023-12-20T12:42:35;91486.34;;;9.13;56.47
39455;BME280;25155;41.890;23.446;2023-12-20T12:45:02;91489.75;;;9.14;56.65
39455;BME280;25155;41.890;23.446;2023-12-20T12:47:30;91479.06;;;9.10;56.94
39455;BME280;25155;41.890;23.446;2023-12-20T12:49:57;91465.81;;;9.01;56.33
39455;BME280;25155;41.890;23.446;2023-12-20T12:52:25;91472.63;;;8.92;56.93
39455;BME280;25155;41.890;23.446;2023-12-20T12:54:52;91464.81;;;8.82;56.94
39455;BME280;25155;41.890;23.446;2023-12-20T12:57:19;91465.38;;;8.79;56.93